createdAt,value
2017-06-26T00:01:02.047Z,55.11
2017-06-26T00:03:29.515Z,55.59
2017-06-26T00:05:57.045Z,55.71
2017-06-26T00:08:24.488Z,56.38
2017-06-26T00:10:51.943Z,56.08
2017-06-26T00:13:19.390Z,55.76
2017-06-26T00:15:49.563Z,56.49
2017-06-26T00:18:16.995Z,56.66
2017-06-26T00:20:44.426Z,56.50
2017-06-26T00:23:11.829Z,56.37
2017-06-26T00:25:39.289Z,56.33
2017-06-26T00:28:06.716Z,56.11
2017-06-26T00:30:34.136Z,56.41
2017-06-26T00:33:02.364Z,56.29
2017-06-26T00:35:29.789Z,56.30
2017-06-26T00:37:57.243Z,56.39
2017-06-26T00:40:24.691Z,56.23
2017-06-26T00:42:52.246Z,56.16
2017-06-26T00:45:19.931Z,56.05
2017-06-26T00:47:47.420Z,55.95
2017-06-26T00:50:14.858Z,55.78
2017-06-26T00:52:42.736Z,56.16
2017-06-26T00:55:10.195Z,56.21
2017-06-26T00:57:37.599Z,56.61
2017-06-26T01:00:05.012Z,56.55
2017-06-26T01:02:32.466Z,56.54
2017-06-26T01:05:00.448Z,56.28
2017-06-26T01:07:27.907Z,56.79
2017-06-26T01:09:56.101Z,56.31
2017-06-26T01:12:23.499Z,56.65
2017-06-26T01:14:50.990Z,56.95
2017-06-26T01:17:18.407Z,57.18
2017-06-26T01:19:45.808Z,57.61
2017-06-26T01:22:13.275Z,58.04
2017-06-26T01:24:40.689Z,57.92
2017-06-26T01:27:08.096Z,57.93
2017-06-26T01:29:35.632Z,57.87
2017-06-26T01:32:04.209Z,57.66
2017-06-26T01:34:31.617Z,57.82
2017-06-26T01:36:59.066Z,58.09
2017-06-26T01:39:26.612Z,58.24
2017-06-26T01:41:54.087Z,58.18
2017-06-26T01:44:21.621Z,58.15
2017-06-26T01:46:49.035Z,58.17
2017-06-26T01:49:16.436Z,58.60
2017-06-26T01:51:43.909Z,58.92
2017-06-26T01:54:11.323Z,59.15
2017-06-26T01:56:38.832Z,59.41
2017-06-26T01:59:06.255Z,59.46
2017-06-26T02:01:34.670Z,59.46
2017-06-26T02:04:02.113Z,59.18
2017-06-26T02:06:29.568Z,58.82
2017-06-26T02:08:56.968Z,59.23
2017-06-26T02:11:24.378Z,58.81
2017-06-26T02:13:51.822Z,58.72
2017-06-26T02:16:19.211Z,58.53
2017-06-26T02:18:46.654Z,59.05
2017-06-26T02:21:14.108Z,58.72
2017-06-26T02:23:42.554Z,58.81
2017-06-26T02:26:10.024Z,58.45
2017-06-26T02:28:37.499Z,59.16
2017-06-26T02:31:04.927Z,59.67
2017-06-26T02:33:32.335Z,60.69
2017-06-26T02:35:59.775Z,60.66
2017-06-26T02:38:27.207Z,61.12
2017-06-26T02:40:54.758Z,61.32
2017-06-26T02:43:22.337Z,61.08
2017-06-26T02:45:49.793Z,60.86
2017-06-26T02:48:21.152Z,60.82
2017-06-26T02:50:48.571Z,61.11
2017-06-26T02:53:16.030Z,61.31
2017-06-26T02:55:43.431Z,61.24
2017-06-26T02:58:10.840Z,61.28
2017-06-26T03:00:38.397Z,61.42
2017-06-26T03:03:05.795Z,61.50
2017-06-26T03:05:33.219Z,62.11
2017-06-26T03:08:00.662Z,61.96
2017-06-26T03:10:28.061Z,62.41
2017-06-26T03:12:55.571Z,62.85
2017-06-26T03:15:23.120Z,62.86
2017-06-26T03:17:50.567Z,62.65
2017-06-26T03:20:17.971Z,62.60
2017-06-26T03:22:45.449Z,62.47
2017-06-26T03:25:12.888Z,62.48
2017-06-26T03:27:40.293Z,62.28
2017-06-26T03:30:07.732Z,62.26
2017-06-26T03:32:35.240Z,62.61
2017-06-26T03:35:03.154Z,62.34
2017-06-26T03:37:30.608Z,61.96
2017-06-26T03:40:01.040Z,62.02
2017-06-26T03:42:28.462Z,62.01
2017-06-26T03:44:56.644Z,62.29
2017-06-26T03:47:24.091Z,62.53
2017-06-26T03:49:55.391Z,62.35
2017-06-26T03:52:22.792Z,62.17
2017-06-26T03:54:50.331Z,62.37
2017-06-26T03:57:17.736Z,62.22
2017-06-26T03:59:45.673Z,62.08
2017-06-26T04:02:13.175Z,62.19
2017-06-26T04:04:41.516Z,62.28
2017-06-26T04:07:09.015Z,61.78
2017-06-26T04:09:36.428Z,61.55
2017-06-26T04:12:03.876Z,61.57
2017-06-26T04:14:31.367Z,61.31
2017-06-26T04:16:58.777Z,61.69
2017-06-26T04:19:26.268Z,62.19
2017-06-26T04:21:53.680Z,62.08
2017-06-26T04:24:21.139Z,61.97
2017-06-26T04:26:49.667Z,62.21
2017-06-26T04:29:19.071Z,62.24
2017-06-26T04:31:46.495Z,62.11
2017-06-26T04:34:13.954Z,61.81
2017-06-26T04:36:41.387Z,61.63
2017-06-26T04:39:12.524Z,61.27
2017-06-26T04:41:44.348Z,61.24
2017-06-26T04:44:11.802Z,61.14
2017-06-26T04:46:39.224Z,61.27
2017-06-26T04:49:06.683Z,60.71
2017-06-26T04:51:34.118Z,60.88
2017-06-26T04:54:01.583Z,60.61
2017-06-26T04:56:29.059Z,59.94
2017-06-26T04:58:56.467Z,60.51
2017-06-26T05:01:26.577Z,60.30
2017-06-26T05:03:54.030Z,60.20
2017-06-26T05:06:21.570Z,60.02
2017-06-26T05:08:49.039Z,59.72
2017-06-26T05:11:16.554Z,60.46
2017-06-26T05:13:43.977Z,60.35
2017-06-26T05:16:11.438Z,60.23
2017-06-26T05:18:42.840Z,60.11
2017-06-26T05:21:10.244Z,59.53
2017-06-26T05:23:37.740Z,59.64
2017-06-26T05:26:05.173Z,59.15
2017-06-26T05:28:32.620Z,59.44
2017-06-26T05:31:00.052Z,59.34
2017-06-26T05:33:27.452Z,59.57
2017-06-26T05:35:54.932Z,59.09
2017-06-26T05:38:22.470Z,59.64
2017-06-26T05:40:50.019Z,59.44
2017-06-26T05:43:17.468Z,59.23
2017-06-26T05:45:44.884Z,59.13
2017-06-26T05:48:12.319Z,58.79
2017-06-26T05:50:39.803Z,58.44
2017-06-26T05:53:07.258Z,58.01
2017-06-26T05:55:43.604Z,57.51
2017-06-26T05:58:11.039Z,56.80
2017-06-26T06:00:41.387Z,56.84
2017-06-26T06:03:09.816Z,56.14
2017-06-26T06:05:37.263Z,56.72
2017-06-26T06:08:05.709Z,56.17
2017-06-26T06:10:33.137Z,56.11
2017-06-26T06:13:00.588Z,55.99
2017-06-26T06:15:27.994Z,55.47
2017-06-26T06:17:55.421Z,55.00
2017-06-26T06:20:22.848Z,55.37
2017-06-26T06:22:50.309Z,54.70
2017-06-26T06:25:17.913Z,54.23
2017-06-26T06:27:45.568Z,54.18
2017-06-26T06:30:15.003Z,54.15
2017-06-26T06:32:42.623Z,53.85
2017-06-26T06:35:10.060Z,53.58
2017-06-26T06:37:37.733Z,53.45
2017-06-26T06:40:05.137Z,53.15
2017-06-26T06:42:32.570Z,53.00
2017-06-26T06:45:02.407Z,52.04
2017-06-26T06:47:29.897Z,52.01
2017-06-26T06:49:57.287Z,51.16
2017-06-26T06:52:24.715Z,51.51
2017-06-26T06:54:52.180Z,51.01
2017-06-26T06:57:25.399Z,50.56
2017-06-26T06:59:56.677Z,50.74
2017-06-26T07:02:24.127Z,51.15
2017-06-26T07:04:51.544Z,50.17
2017-06-26T07:07:18.959Z,49.32
2017-06-26T07:09:50.399Z,49.88
2017-06-26T07:12:17.798Z,49.93
2017-06-26T07:14:46.838Z,50.57
2017-06-26T07:17:14.248Z,49.22
2017-06-26T07:19:41.904Z,49.04
2017-06-26T07:22:09.343Z,49.09
2017-06-26T07:24:36.767Z,48.56
2017-06-26T07:27:04.215Z,48.60
2017-06-26T07:29:31.764Z,48.38
2017-06-26T07:31:59.172Z,48.22
2017-06-26T07:34:26.607Z,48.17
2017-06-26T07:36:54.071Z,47.97
2017-06-26T07:39:21.496Z,48.07
2017-06-26T07:41:48.949Z,47.72
2017-06-26T07:44:16.987Z,47.45
2017-06-26T07:46:53.319Z,47.83
2017-06-26T07:49:20.765Z,46.36
2017-06-26T07:51:48.187Z,46.59
2017-06-26T07:54:15.651Z,45.15
2017-06-26T07:56:43.068Z,45.88
2017-06-26T07:59:10.489Z,45.16
2017-06-26T08:01:37.952Z,45.75
2017-06-26T08:04:05.384Z,45.21
2017-06-26T08:06:32.863Z,45.03
2017-06-26T08:09:01.252Z,43.97
2017-06-26T08:11:28.695Z,43.75
2017-06-26T08:13:56.106Z,45.34
2017-06-26T08:16:23.628Z,44.76
2017-06-26T08:18:51.424Z,45.84
2017-06-26T08:21:18.882Z,44.39
2017-06-26T08:23:46.325Z,43.31
2017-06-26T08:26:13.819Z,41.51
2017-06-26T08:28:41.301Z,43.23
2017-06-26T08:31:08.753Z,41.19
2017-06-26T08:33:36.236Z,41.25
2017-06-26T08:36:03.704Z,41.04
2017-06-26T08:38:31.123Z,40.73
2017-06-26T08:40:58.933Z,40.53
2017-06-26T08:43:26.353Z,40.23
2017-06-26T08:45:55.657Z,40.07
2017-06-26T08:48:23.129Z,40.28
2017-06-26T08:50:50.650Z,39.58
2017-06-26T08:53:18.203Z,41.14
2017-06-26T08:55:45.871Z,40.47
2017-06-26T08:58:15.779Z,38.94
2017-06-26T09:00:43.320Z,37.96
2017-06-26T09:03:10.992Z,38.36
2017-06-26T09:05:38.407Z,38.00
2017-06-26T09:08:07.024Z,38.21
2017-06-26T09:10:34.792Z,39.26
2017-06-26T09:13:03.285Z,37.23
2017-06-26T09:15:30.772Z,36.87
2017-06-26T09:18:00.538Z,36.72
2017-06-26T09:20:32.895Z,37.16
2017-06-26T09:23:00.336Z,36.51
2017-06-26T09:25:28.057Z,37.21
2017-06-26T09:27:55.570Z,37.14
2017-06-26T09:30:23.035Z,36.61
2017-06-26T09:32:52.299Z,35.83
2017-06-26T09:35:19.715Z,36.15
2017-06-26T09:37:47.299Z,35.86
2017-06-26T09:40:14.724Z,36.32
2017-06-26T09:42:42.255Z,35.53
2017-06-26T09:45:10.066Z,34.96
2017-06-26T09:47:38.099Z,34.95
2017-06-26T09:50:05.558Z,36.34
2017-06-26T09:52:33.553Z,34.36
2017-06-26T09:55:00.972Z,34.48
2017-06-26T09:57:28.480Z,34.44
2017-06-26T09:59:55.959Z,33.83
2017-06-26T10:02:23.477Z,33.89
2017-06-26T10:04:51.037Z,34.10
2017-06-26T10:07:18.610Z,32.85
2017-06-26T10:09:46.048Z,33.18
2017-06-26T10:12:13.658Z,33.82
2017-06-26T10:14:41.145Z,33.38
2017-06-26T10:17:08.546Z,31.09
2017-06-26T10:19:36.009Z,32.50
2017-06-26T10:22:03.595Z,33.34
2017-06-26T10:24:31.090Z,31.48
2017-06-26T10:26:58.568Z,32.82
2017-06-26T10:29:26.057Z,32.01
2017-06-26T10:31:53.550Z,31.18
2017-06-26T10:34:21.042Z,30.85
2017-06-26T10:36:48.472Z,30.82
2017-06-26T10:39:15.952Z,30.23
2017-06-26T10:41:43.394Z,30.91
2017-06-26T10:44:10.805Z,31.05
2017-06-26T10:46:38.353Z,31.87
2017-06-26T10:49:05.957Z,31.09
2017-06-26T10:51:33.444Z,31.63
2017-06-26T10:54:01.006Z,31.58
2017-06-26T10:56:28.456Z,30.95
2017-06-26T10:58:58.805Z,29.57
2017-06-26T11:01:31.576Z,29.20
2017-06-26T11:03:59.063Z,31.59
2017-06-26T11:06:26.546Z,30.71
2017-06-26T11:08:54.834Z,29.74
2017-06-26T11:11:22.379Z,30.35
2017-06-26T11:13:49.840Z,29.97
2017-06-26T11:16:18.020Z,30.62
2017-06-26T11:18:45.467Z,30.60
2017-06-26T11:21:12.920Z,29.46
2017-06-26T11:23:40.418Z,30.99
2017-06-26T11:26:07.917Z,30.22
2017-06-26T11:28:35.456Z,29.61
2017-06-26T11:31:02.876Z,29.98
2017-06-26T11:33:30.479Z,30.02
2017-06-26T11:35:58.007Z,29.94
2017-06-26T11:38:25.467Z,29.33
2017-06-26T11:40:52.954Z,30.57
2017-06-26T11:43:20.647Z,31.53
2017-06-26T11:45:48.100Z,29.95
2017-06-26T11:48:15.671Z,30.09
2017-06-26T11:50:43.104Z,29.49
2017-06-26T11:53:10.707Z,27.17
2017-06-26T11:55:38.198Z,29.01
2017-06-26T11:58:05.830Z,27.77
2017-06-26T12:00:33.282Z,29.95
2017-06-26T12:03:00.770Z,28.07
2017-06-26T12:05:28.227Z,29.44
2017-06-26T12:07:55.726Z,27.12
2017-06-26T12:10:23.239Z,27.69
2017-06-26T12:12:50.772Z,27.44
2017-06-26T12:15:18.256Z,28.19
2017-06-26T12:17:45.773Z,28.60
2017-06-26T12:20:13.314Z,28.14
2017-06-26T12:22:40.833Z,28.86
2017-06-26T12:25:08.250Z,27.32
2017-06-26T12:27:35.724Z,27.26
2017-06-26T12:30:03.408Z,27.38
2017-06-26T12:32:32.575Z,27.07
2017-06-26T12:35:03.508Z,27.38
2017-06-26T12:37:32.565Z,28.74
2017-06-26T12:40:01.314Z,29.19
2017-06-26T12:42:30.384Z,28.33
2017-06-26T12:44:57.855Z,28.58
2017-06-26T12:47:26.880Z,29.75
2017-06-26T12:49:55.831Z,28.59
2017-06-26T12:52:23.881Z,26.87
2017-06-26T12:54:51.436Z,23.88
2017-06-26T12:57:19.043Z,23.09
2017-06-26T12:59:46.770Z,21.39
2017-06-26T13:02:14.377Z,20.43
2017-06-26T13:04:42.839Z,19.94
2017-06-26T13:07:10.368Z,19.53
2017-06-26T13:09:37.930Z,17.72
2017-06-26T13:12:05.488Z,17.84
2017-06-26T13:14:33.370Z,17.74
2017-06-26T13:17:01.025Z,16.40
2017-06-26T13:19:28.483Z,16.52
2017-06-26T13:21:55.912Z,16.66
2017-06-26T13:24:23.392Z,16.47
2017-06-26T13:26:51.531Z,16.47
2017-06-26T13:29:18.978Z,16.13
2017-06-26T13:31:46.549Z,16.52
2017-06-26T13:34:15.652Z,15.55
2017-06-26T13:36:43.161Z,16.02
2017-06-26T13:39:10.635Z,16.69
2017-06-26T13:41:38.192Z,17.37
2017-06-26T13:44:05.712Z,16.79
2017-06-26T13:46:33.288Z,18.61
2017-06-26T13:49:02.793Z,17.59
2017-06-26T13:51:32.986Z,18.02
2017-06-26T13:54:00.398Z,17.59
2017-06-26T13:56:27.873Z,17.18
2017-06-26T13:58:55.346Z,17.34
2017-06-26T14:01:22.791Z,18.90
2017-06-26T14:03:50.289Z,18.19
2017-06-26T14:06:17.729Z,18.96
2017-06-26T14:08:45.152Z,18.31
2017-06-26T14:11:12.612Z,19.43
2017-06-26T14:13:40.036Z,18.55
2017-06-26T14:16:07.479Z,17.48
2017-06-26T14:18:35.030Z,18.00
2017-06-26T14:21:02.476Z,18.83
2017-06-26T14:23:30.452Z,20.77
2017-06-26T14:25:57.924Z,21.85
2017-06-26T14:28:25.435Z,22.82
2017-06-26T14:30:52.852Z,21.84
2017-06-26T14:33:20.319Z,21.69
2017-06-26T14:35:47.777Z,22.16
2017-06-26T14:38:15.181Z,22.63
2017-06-26T14:40:42.609Z,22.63
2017-06-26T14:43:10.037Z,23.73
2017-06-26T14:45:37.475Z,23.08
2017-06-26T14:48:04.957Z,22.94
2017-06-26T14:50:32.364Z,23.64
2017-06-26T14:52:59.823Z,23.90
2017-06-26T14:55:27.248Z,23.35
2017-06-26T14:57:54.652Z,23.33
2017-06-26T15:00:22.122Z,22.45
2017-06-26T15:02:49.600Z,22.78
2017-06-26T15:05:17.015Z,23.36
2017-06-26T15:07:44.657Z,23.45
2017-06-26T15:10:12.200Z,24.49
2017-06-26T15:12:39.883Z,24.11
2017-06-26T15:15:07.346Z,23.99
2017-06-26T15:17:34.812Z,24.36
2017-06-26T15:20:02.282Z,25.17
2017-06-26T15:22:29.695Z,23.84
2017-06-26T15:24:57.122Z,24.58
2017-06-26T15:27:24.572Z,23.90
2017-06-26T15:29:52.063Z,23.91
2017-06-26T15:32:19.567Z,23.61
2017-06-26T15:34:46.976Z,23.88
2017-06-26T15:37:14.409Z,25.73
2017-06-26T15:39:41.853Z,25.78
2017-06-26T15:42:09.284Z,26.10
2017-06-26T15:44:37.474Z,27.09
2017-06-26T15:47:04.956Z,27.20
2017-06-26T15:49:32.408Z,26.04
2017-06-26T15:51:59.813Z,26.62
2017-06-26T15:54:27.246Z,26.00
2017-06-26T15:56:56.507Z,27.25
2017-06-26T16:04:43.519Z,27.67
2017-06-26T16:07:10.978Z,28.91
2017-06-26T16:09:38.391Z,28.34
2017-06-26T16:12:05.868Z,29.17
2017-06-26T16:14:33.353Z,29.31
2017-06-26T16:17:00.763Z,27.87
2017-06-26T16:19:28.184Z,28.20
2017-06-26T16:21:55.640Z,29.26
2017-06-26T16:24:23.085Z,28.78
2017-06-26T16:26:50.518Z,29.08
2017-06-26T16:29:17.992Z,29.38
2017-06-26T16:31:45.413Z,28.89
2017-06-26T16:34:12.856Z,30.27
2017-06-26T16:36:40.330Z,30.49
2017-06-26T16:39:07.801Z,29.80
2017-06-26T16:41:35.207Z,30.28
2017-06-26T16:44:02.642Z,30.15
2017-06-26T16:46:30.080Z,29.69
2017-06-26T16:48:57.504Z,30.06
2017-06-26T16:51:24.905Z,29.84
2017-06-26T16:53:52.348Z,30.18
2017-06-26T16:56:19.764Z,29.94
2017-06-26T16:58:47.236Z,29.99
2017-06-26T17:01:14.692Z,31.04
2017-06-26T17:03:42.100Z,30.56
2017-06-26T17:06:09.570Z,30.42
2017-06-26T17:08:37.040Z,30.67
2017-06-26T17:11:06.060Z,30.60
2017-06-26T17:13:33.497Z,31.59
2017-06-26T17:16:01.646Z,31.08
2017-06-26T17:18:30.929Z,31.18
2017-06-26T17:20:58.828Z,31.85
2017-06-26T17:23:27.729Z,31.35
2017-06-26T17:25:55.633Z,31.24
2017-06-26T17:28:23.063Z,31.64
2017-06-26T17:30:50.885Z,31.25
2017-06-26T17:33:18.302Z,31.36
2017-06-26T17:35:46.345Z,32.08
2017-06-26T17:38:13.794Z,32.31
2017-06-26T17:40:41.311Z,32.13
2017-06-26T17:43:10.061Z,32.98
2017-06-26T17:45:37.507Z,33.37
2017-06-26T17:48:05.908Z,32.90
2017-06-26T17:50:33.383Z,33.38
2017-06-26T17:53:00.837Z,33.53
2017-06-26T17:55:28.322Z,33.48
2017-06-26T17:57:55.790Z,32.76
2017-06-26T18:00:23.998Z,32.99
2017-06-26T18:02:51.446Z,33.51
2017-06-26T18:05:18.896Z,33.64
2017-06-26T18:07:46.336Z,33.79
2017-06-26T18:10:15.693Z,34.05
2017-06-26T18:12:43.173Z,33.77
2017-06-26T18:15:10.588Z,34.58
2017-06-26T18:17:38.015Z,34.86
2017-06-26T18:20:05.449Z,34.72
2017-06-26T18:22:32.890Z,34.94
2017-06-26T18:25:00.404Z,35.11
2017-06-26T18:27:27.874Z,35.32
2017-06-26T18:29:55.702Z,35.56
2017-06-26T18:32:23.096Z,35.59
2017-06-26T18:34:50.800Z,35.34
2017-06-26T18:37:18.279Z,35.67
2017-06-26T18:39:45.692Z,35.24
2017-06-26T18:42:13.124Z,35.51
2017-06-26T18:44:42.577Z,35.42
2017-06-26T18:47:11.730Z,36.01
2017-06-26T18:49:40.739Z,36.26
2017-06-26T18:52:10.241Z,36.81
2017-06-26T18:54:37.738Z,36.53
2017-06-26T18:57:05.163Z,36.29
2017-06-26T18:59:32.656Z,36.33
2017-06-26T19:02:00.329Z,36.27
2017-06-26T19:04:27.828Z,36.59
2017-06-26T19:06:55.247Z,36.92
2017-06-26T19:09:22.697Z,37.05
2017-06-26T19:11:52.042Z,37.21
2017-06-26T19:14:20.689Z,36.99
2017-06-26T19:16:48.196Z,38.11
2017-06-26T19:19:15.624Z,36.86
2017-06-26T19:21:43.070Z,37.69
2017-06-26T19:24:10.520Z,37.49
2017-06-26T19:26:37.935Z,38.47
2017-06-26T19:29:05.401Z,40.58
2017-06-26T19:31:32.880Z,41.26
2017-06-26T19:34:00.481Z,40.81
2017-06-26T19:36:28.102Z,45.39
2017-06-26T19:38:55.639Z,43.76
2017-06-26T19:41:23.196Z,44.08
2017-06-26T19:43:51.113Z,40.85
2017-06-26T19:46:18.537Z,40.93
2017-06-26T19:48:45.968Z,40.88
2017-06-26T19:51:13.450Z,41.25
2017-06-26T19:53:41.630Z,40.74
2017-06-26T19:56:09.101Z,41.47
2017-06-26T19:58:36.522Z,41.80
2017-06-26T20:01:04.001Z,42.37
2017-06-26T20:03:31.505Z,42.51
2017-06-26T20:05:59.007Z,41.36
2017-06-26T20:08:26.467Z,41.25
2017-06-26T20:10:53.924Z,40.67
2017-06-26T20:13:21.367Z,40.78
2017-06-26T20:15:48.798Z,41.09
2017-06-26T20:18:16.201Z,41.90
2017-06-26T20:20:43.679Z,41.85
2017-06-26T20:23:11.124Z,41.48
2017-06-26T20:25:38.581Z,41.96
2017-06-26T20:28:06.045Z,42.04
2017-06-26T20:30:33.513Z,42.28
2017-06-26T20:33:01.002Z,41.77
2017-06-26T20:35:28.500Z,41.63
2017-06-26T20:37:55.939Z,41.97
2017-06-26T20:40:25.030Z,42.83
2017-06-26T20:42:52.476Z,43.16
2017-06-26T20:45:19.892Z,43.16
2017-06-26T20:47:47.344Z,42.74
2017-06-26T20:50:14.765Z,43.19
2017-06-26T20:52:42.203Z,42.95
2017-06-26T20:55:09.640Z,42.97
2017-06-26T20:57:37.107Z,43.40
2017-06-26T21:00:04.544Z,43.56
2017-06-26T21:02:32.022Z,43.58
2017-06-26T21:04:59.484Z,44.37
2017-06-26T21:07:26.902Z,44.23
2017-06-26T21:09:54.365Z,43.98
2017-06-26T21:12:21.796Z,43.92
2017-06-26T21:14:49.259Z,43.40
2017-06-26T21:17:16.707Z,43.80
2017-06-26T21:19:44.141Z,43.93
2017-06-26T21:22:11.629Z,43.92
2017-06-26T21:24:39.056Z,44.44
2017-06-26T21:27:06.505Z,43.63
2017-06-26T21:29:33.895Z,42.67
2017-06-26T21:32:01.380Z,43.72
2017-06-26T21:34:28.808Z,43.94
2017-06-26T21:36:56.217Z,44.19
2017-06-26T21:39:23.703Z,44.51
2017-06-26T21:41:51.674Z,44.28
2017-06-26T21:44:19.105Z,44.91
2017-06-26T21:46:46.525Z,44.17
2017-06-26T21:49:13.940Z,44.18
2017-06-26T21:51:41.365Z,44.29
2017-06-26T21:54:08.833Z,44.28
2017-06-26T21:56:36.282Z,44.69
2017-06-26T21:59:03.714Z,44.88
2017-06-26T22:01:31.164Z,45.25
2017-06-26T22:03:58.601Z,44.66
2017-06-26T22:06:26.011Z,44.55
2017-06-26T22:08:53.559Z,44.22
2017-06-26T22:11:20.960Z,43.97
2017-06-26T22:13:48.364Z,44.49
2017-06-26T22:16:15.825Z,45.60
2017-06-26T22:18:43.243Z,46.94
2017-06-26T22:21:10.708Z,47.29
2017-06-26T22:23:38.117Z,48.30
2017-06-26T22:26:05.541Z,50.38
2017-06-26T22:28:33.004Z,52.26
2017-06-26T22:31:00.409Z,56.37
2017-06-26T22:33:27.863Z,72.04
